Strool, South Dakota
Current Conditions -  °F | °C
As of 5:53 AM on Saturday 20 Dec 2014 (Local Time) from KHEI Reporting Station
Overcast Overcast  
Wind Chill: 30°   Ceiling: 7000
Heat Index: 30°   Visibility: 10mi
Dew Point: 24°   Wind: 0mph
Humidity: 79%   Direction: NA
Pressure: 29.87"   Gusts: NA
Location:  45.6029°N, 102.827°W
Report Text: KHEI 201253Z AUTO 00000KT 10SM OVC070 M01/M04 A2987 RMK AO2 SLP144 T10111044
Loading
Personal Weather Stations






























Interactive Weather Map New forecast layout! Learn more

10-Day Weather Forecast

Advertisements
Track Severe Weather on mobile